Time;durP1;ratioP1;P1;durP2;ratioP2;P2;SDS_P1;SDS_P2;PMS_P1;PMS_P2;Temp;Humidity;BMP_temperature;BMP_pressure;BME280_temperature;BME280_humidity;BME280_pressure;Samples;Min_cycle;Max_cycle;Signal;HPM_P1;HPM_P2
2022/08/03 00:01:21;;;;;;;4.63;2.73;;;;;;;19.59;82.10;101173.75;5012871;28;20913;-67
2022/08/03 00:03:48;;;;;;;8.50;2.50;;;;;;;19.55;82.24;101176.38;5013159;28;20522;-67
2022/08/03 00:06:15;;;;;;;5.67;2.73;;;;;;;19.56;82.65;101180.72;5013377;28;20923;-65
2022/08/03 00:08:41;;;;;;;6.53;2.50;;;;;;;19.55;81.87;101181.88;5013228;28;20527;-67
2022/08/03 00:11:08;;;;;;;4.00;2.87;;;;;;;19.50;82.32;101173.88;5013074;28;20545;-67
2022/08/03 00:13:35;;;;;;;5.93;2.20;;;;;;;19.51;80.89;101172.72;5013082;28;20444;-67
2022/08/03 00:16:01;;;;;;;5.70;3.17;;;;;;;19.44;81.79;101179.97;5012795;28;20476;-67
2022/08/03 00:18:29;;;;;;;5.03;2.60;;;;;;;19.39;82.41;101176.31;5012796;28;20487;-66
2022/08/03 00:20:56;;;;;;;8.00;3.10;;;;;;;19.44;82.60;101172.53;5012880;28;20498;-67
2022/08/03 00:23:22;;;;;;;7.70;3.47;;;;;;;19.46;82.04;101163.94;5016382;28;20804;-67
2022/08/03 00:25:49;;;;;;;4.10;2.67;;;;;;;19.48;82.61;101156.13;5016588;28;20490;-66
2022/08/03 00:28:16;;;;;;;4.50;2.30;;;;;;;19.50;82.71;101159.34;5016290;28;20486;-67
2022/08/03 00:30:42;;;;;;;6.57;3.10;;;;;;;19.48;81.93;101156.13;5016490;28;20499;-68
2022/08/03 00:33:09;;;;;;;5.33;2.60;;;;;;;19.49;82.74;101155.00;5016184;28;20539;-66
2022/08/03 00:35:37;;;;;;;4.40;2.43;;;;;;;19.48;81.78;101153.38;5016119;28;20896;-67
2022/08/03 00:38:04;;;;;;;5.20;3.10;;;;;;;19.47;81.86;101158.06;5016485;28;20440;-66
2022/08/03 00:40:31;;;;;;;4.47;2.67;;;;;;;19.50;81.95;101145.59;5015909;28;20523;-66
2022/08/03 00:42:59;;;;;;;3.93;2.63;;;;;;;19.47;81.97;101149.03;5016230;28;20444;-65
2022/08/03 00:45:28;;;;;;;4.60;2.60;;;;;;;19.48;81.57;101150.63;5016204;28;20579;-66
2022/08/03 00:47:55;;;;;;;4.23;2.17;;;;;;;19.45;81.64;101156.84;5016157;28;20475;-66
2022/08/03 00:50:23;;;;;;;5.77;2.47;;;;;;;19.41;81.60;101152.03;5016131;28;20845;-66
2022/08/03 00:52:53;;;;;;;4.40;2.43;;;;;;;19.40;81.29;101152.38;5016298;28;20483;-67
2022/08/03 00:55:20;;;;;;;5.03;2.37;;;;;;;19.37;82.06;101150.31;5016397;28;20444;-66
2022/08/03 00:57:48;;;;;;;6.30;2.70;;;;;;;19.33;83.26;101143.91;5016012;28;20531;-66
2022/08/03 01:00:16;;;;;;;5.00;2.60;;;;;;;19.35;82.93;101138.88;5016339;28;20901;-66
2022/08/03 01:02:43;;;;;;;4.07;2.20;;;;;;;19.27;83.55;101137.88;5016053;28;20478;-66
2022/08/03 01:05:10;;;;;;;5.20;2.50;;;;;;;19.28;83.38;101136.72;5015929;28;20527;-66
2022/08/03 01:07:59;;;;;;;4.30;2.80;;;;;;;19.24;82.75;101130.31;5015868;28;20528;-67
2022/08/03 01:10:32;;;;;;;10.20;2.80;;;;;;;19.18;79.54;101126.22;5015810;28;20502;-66
2022/08/03 01:13:03;;;;;;;5.30;1.73;;;;;;;19.18;77.35;101137.19;5015792;28;20531;-66
2022/08/03 01:15:39;;;;;;;4.47;2.30;;;;;;;19.14;78.58;101126.09;5015729;28;20515;-67
2022/08/03 01:18:12;;;;;;;11.40;3.30;;;;;;;19.11;80.07;101125.97;5015711;28;20511;-67
2022/08/03 01:20:43;;;;;;;4.73;2.70;;;;;;;19.15;81.82;101127.69;5015254;28;20521;-68
2022/08/03 01:23:35;;;;;;;4.60;2.17;;;;;;;19.19;82.17;101127.81;5015640;28;20443;-66
2022/08/03 01:26:13;;;;;;;8.10;2.70;;;;;;;19.16;83.38;101126.53;5015468;28;20916;-66
2022/08/03 01:28:56;;;;;;;4.37;2.57;;;;;;;19.18;84.76;101119.91;5015284;28;20813;-67
2022/08/03 01:31:28;;;;;;;6.10;2.83;;;;;;;19.19;85.31;101124.25;5015293;28;20460;-67
2022/08/03 01:34:00;;;;;;;4.30;2.27;;;;;;;19.19;85.29;101119.56;5015012;28;20519;-65
2022/08/03 01:36:32;;;;;;;4.67;2.87;;;;;;;19.18;85.29;101112.47;5015371;28;20869;-66
2022/08/03 01:39:02;;;;;;;4.10;2.43;;;;;;;19.20;85.14;101118.41;5015670;28;20459;-66
2022/08/03 01:41:33;;;;;;;4.70;2.40;;;;;;;19.23;85.53;101123.22;5014775;28;20483;-66
2022/08/03 01:44:01;;;;;;;5.10;2.60;;;;;;;19.24;85.30;101113.03;5015199;28;20853;-66
2022/08/03 01:46:31;;;;;;;4.67;3.00;;;;;;;19.26;85.33;101117.03;5015123;28;20848;-66
2022/08/03 01:48:59;;;;;;;5.90;2.90;;;;;;;19.25;85.43;101123.66;5014989;28;20498;-66
2022/08/03 01:51:28;;;;;;;5.93;2.63;;;;;;;19.30;84.71;101117.13;5014948;28;20500;-66
2022/08/03 01:53:55;;;;;;;8.30;2.60;;;;;;;19.31;84.15;101119.53;5014955;28;20523;-66
2022/08/03 01:56:24;;;;;;;5.60;3.17;;;;;;;19.35;83.74;101114.97;5014626;28;20535;-68
2022/08/03 01:58:53;;;;;;;5.70;3.17;;;;;;;19.35;82.90;101120.47;5014730;28;20787;-67
2022/08/03 02:01:22;;;;;;;5.00;2.90;;;;;;;19.41;82.36;101112.75;5014791;28;20464;-66
2022/08/03 02:03:52;;;;;;;5.43;2.80;;;;;;;19.44;82.40;101117.56;5014767;28;20455;-66
2022/08/03 02:06:21;;;;;;;5.50;2.70;;;;;;;19.47;82.35;101110.56;5014675;28;20479;-66
2022/08/03 02:08:48;;;;;;;12.43;3.37;;;;;;;19.49;82.52;101111.03;5014732;28;20452;-67
2022/08/03 02:11:15;;;;;;;4.20;2.47;;;;;;;19.50;82.76;101110.66;5014589;28;20829;-65
2022/08/03 02:13:44;;;;;;;4.50;2.27;;;;;;;19.51;82.81;101112.25;5014300;28;20444;-67
2022/08/03 02:16:13;;;;;;;4.10;2.03;;;;;;;19.50;82.01;101107.94;5014575;28;20471;-66
2022/08/03 02:18:41;;;;;;;4.23;2.80;;;;;;;19.54;81.77;101116.28;5014587;28;20479;-67
2022/08/03 02:21:11;;;;;;;5.03;3.00;;;;;;;19.56;81.24;101109.25;5014080;28;20542;-66
2022/08/03 02:23:38;;;;;;;7.97;3.60;;;;;;;19.57;81.36;101112.84;5014473;28;20425;-67
2022/08/03 02:26:11;;;;;;;6.23;2.17;;;;;;;19.56;81.13;101109.25;5014662;28;20587;-67
2022/08/03 02:28:41;;;;;;;6.40;3.33;;;;;;;19.58;80.88;101117.19;5014174;28;20893;-67
2022/08/03 02:31:15;;;;;;;5.00;2.10;;;;;;;19.55;81.99;101120.63;5014277;28;20899;-66
2022/08/03 02:33:47;;;;;;;5.80;3.47;;;;;;;19.55;82.26;101120.63;5014363;28;20436;-66
2022/08/03 02:36:18;;;;;;;5.37;3.00;;;;;;;19.53;82.91;101120.19;5013916;28;20425;-66
2022/08/03 02:38:49;;;;;;;3.47;2.13;;;;;;;19.52;82.76;101113.06;5014216;28;20460;-67
2022/08/03 02:41:21;;;;;;;4.30;2.53;;;;;;;19.53;82.84;101118.22;5013921;28;20479;-66
2022/08/03 02:43:53;;;;;;;4.73;2.80;;;;;;;19.53;82.94;101109.97;5013944;28;20523;-67
2022/08/03 02:46:24;;;;;;;7.63;2.80;;;;;;;19.51;82.41;101112.25;5013467;28;20559;-65
2022/08/03 02:48:53;;;;;;;5.00;3.17;;;;;;;19.49;81.99;101109.06;5014162;28;20459;-67
2022/08/03 02:51:23;;;;;;;4.70;2.70;;;;;;;19.49;83.08;101116.53;5013923;28;20559;-66
2022/08/03 02:53:50;;;;;;;5.50;2.63;;;;;;;19.48;82.71;101115.72;5013941;28;20527;-67
2022/08/03 02:56:19;;;;;;;6.93;3.20;;;;;;;19.47;82.51;101116.06;5013848;28;20467;-66
2022/08/03 02:58:48;;;;;;;5.40;3.40;;;;;;;19.46;82.77;101118.00;5013846;28;20527;-67
2022/08/03 03:01:16;;;;;;;4.60;3.50;;;;;;;19.44;82.83;101117.56;5013423;28;20974;-65
2022/08/03 03:03:44;;;;;;;7.27;4.10;;;;;;;19.41;82.69;101126.50;5013852;28;20530;-67
2022/08/03 03:06:11;;;;;;;5.03;2.80;;;;;;;19.42;82.91;101115.16;5013713;28;20519;-66
2022/08/03 03:08:39;;;;;;;6.00;3.20;;;;;;;19.44;82.64;101116.78;5013370;28;20997;-68
2022/08/03 03:11:08;;;;;;;6.03;3.33;;;;;;;19.44;83.04;101117.56;5013683;28;20526;-66
2022/08/03 03:13:36;;;;;;;5.57;2.77;;;;;;;19.41;82.66;101124.56;5013463;28;20475;-66
2022/08/03 03:16:05;;;;;;;5.63;2.73;;;;;;;19.41;83.09;101126.50;5013649;28;20475;-66
2022/08/03 03:18:34;;;;;;;4.30;2.13;;;;;;;19.46;83.63;101119.97;5013226;28;20540;-66
2022/08/03 03:21:02;;;;;;;4.73;2.50;;;;;;;19.43;83.15;101121.44;5013214;28;21077;-65
2022/08/03 03:23:30;;;;;;;5.57;3.03;;;;;;;19.37;83.39;101120.91;5013260;28;21013;-66
2022/08/03 03:26:01;;;;;;;4.27;2.83;;;;;;;19.31;83.05;101108.56;5013369;28;20482;-67
2022/08/03 03:28:28;;;;;;;4.97;2.77;;;;;;;19.24;82.46;101119.31;5013621;28;20433;-66
2022/08/03 03:30:55;;;;;;;4.07;2.30;;;;;;;19.21;82.39;101114.50;5013473;28;20982;-66
2022/08/03 03:33:22;;;;;;;3.93;2.47;;;;;;;19.18;82.58;101115.22;5013415;28;20484;-66
2022/08/03 03:35:50;;;;;;;6.70;2.33;;;;;;;19.11;83.38;101113.06;5013437;28;20523;-66
2022/08/03 03:38:17;;;;;;;4.00;2.10;;;;;;;19.10;83.16;101118.91;5013102;28;21028;-65
2022/08/03 03:40:44;;;;;;;4.73;2.77;;;;;;;19.03;83.28;101119.47;5038539;22;20524;-71
2022/08/03 03:43:13;;;;;;;4.90;3.03;;;;;;;19.03;82.27;101116.72;5013316;28;20483;-71
2022/08/03 03:45:41;;;;;;;12.33;3.20;;;;;;;19.00;82.87;101109.19;5013261;28;20513;-71
2022/08/03 03:48:08;;;;;;;4.53;2.73;;;;;;;18.98;82.71;101114.22;5013233;28;20483;-71
2022/08/03 03:50:39;;;;;;;5.30;2.70;;;;;;;19.00;83.03;101111.94;5013227;28;20503;-71
2022/08/03 03:53:09;;;;;;;4.13;2.73;;;;;;;19.00;83.47;101120.16;5013313;28;20502;-76
2022/08/03 03:55:36;;;;;;;13.40;3.53;;;;;;;19.00;83.88;101108.41;5013696;28;20539;-72
2022/08/03 03:58:03;;;;;;;4.70;2.73;;;;;;;19.00;84.33;101108.41;5017191;28;20539;-72
2022/08/03 04:00:31;;;;;;;4.17;2.50;;;;;;;18.98;83.97;101105.97;5016845;28;20464;-72
2022/08/03 04:02:58;;;;;;;3.70;2.20;;;;;;;18.99;84.68;101109.53;5016753;28;20486;-72
2022/08/03 04:11:10;;;;;;;6.77;2.90;;;;;;;18.93;84.30;101108.16;5016639;28;20443;-72
2022/08/03 04:13:40;;;;;;;5.03;2.50;;;;;;;18.88;84.94;101115.47;5016894;28;20522;-71
2022/08/03 04:16:12;;;;;;;8.97;3.27;;;;;;;18.91;85.43;101114.00;5016844;28;20476;-72
2022/08/03 04:18:41;;;;;;;5.97;2.93;;;;;;;18.90;85.41;101115.97;5016791;28;20516;-72
2022/08/03 04:21:10;;;;;;;4.50;2.73;;;;;;;18.87;85.30;101113.88;5016647;28;20487;-72
2022/08/03 04:23:41;;;;;;;9.13;3.57;;;;;;;18.85;85.11;101118.09;5016664;28;20483;-73
2022/08/03 04:26:10;;;;;;;5.27;3.10;;;;;;;18.85;85.16;101118.91;5016687;28;20607;-72
2022/08/03 04:28:39;;;;;;;4.37;2.70;;;;;;;18.82;85.31;101114.13;5016546;28;20443;-72
2022/08/03 04:31:08;;;;;;;7.40;3.07;;;;;;;18.85;85.34;101116.16;5016150;28;20543;-72
2022/08/03 04:33:37;;;;;;;5.60;2.80;;;;;;;18.84;85.81;101122.81;5016347;28;20463;-73
2022/08/03 04:36:06;;;;;;;14.13;3.47;;;;;;;18.85;86.13;101123.59;5016199;28;20447;-73
2022/08/03 04:38:38;;;;;;;6.90;3.13;;;;;;;18.92;86.32;101118.34;5016337;28;20523;-72
2022/08/03 04:41:07;;;;;;;6.03;3.30;;;;;;;18.93;86.07;101119.16;5016072;28;20490;-72
2022/08/03 04:43:35;;;;;;;6.10;3.30;;;;;;;18.97;86.49;101117.31;5016279;28;20528;-73
2022/08/03 04:46:02;;;;;;;5.27;3.13;;;;;;;18.99;86.41;101121.31;5016287;28;20530;-72
2022/08/03 04:48:31;;;;;;;4.60;2.73;;;;;;;19.06;86.21;101123.47;5016141;28;20519;-72
2022/08/03 04:50:59;;;;;;;6.60;3.00;;;;;;;19.08;85.95;101121.16;5016099;28;20470;-71
2022/08/03 04:53:26;;;;;;;5.33;3.50;;;;;;;19.12;86.23;101124.81;5016227;28;20456;-72
2022/08/03 04:55:52;;;;;;;3.90;2.57;;;;;;;19.16;86.00;101123.78;5015769;28;20467;-73
2022/08/03 04:58:19;;;;;;;5.47;3.47;;;;;;;19.20;86.51;101132.16;5016119;28;20467;-72
2022/08/03 05:00:50;;;;;;;8.27;4.33;;;;;;;19.26;86.21;101138.22;5015920;28;20464;-71
2022/08/03 05:03:16;;;;;;;7.97;3.30;;;;;;;19.28;86.83;101131.22;5015953;28;20448;-71
2022/08/03 05:05:44;;;;;;;7.17;3.40;;;;;;;19.29;87.40;101132.81;5015956;28;20484;-77
2022/08/03 05:08:11;;;;;;;4.27;2.60;;;;;;;19.35;88.18;101136.94;5015066;28;21078;-71
2022/08/03 05:10:37;;;;;;;8.57;3.40;;;;;;;19.44;88.66;101133.25;5015416;28;20989;-70
2022/08/03 05:13:05;;;;;;;12.00;3.77;;;;;;;19.44;89.71;101133.25;5015457;28;20475;-71
2022/08/03 05:15:31;;;;;;;7.20;3.40;;;;;;;19.51;90.15;101127.97;5015400;28;20482;-71
2022/08/03 05:17:58;;;;;;;5.40;2.73;;;;;;;19.57;89.90;101132.06;5015624;28;20476;-71
2022/08/03 05:20:25;;;;;;;6.53;3.07;;;;;;;19.63;89.99;101130.69;5015492;28;20448;-70
2022/08/03 05:22:52;;;;;;;4.77;2.90;;;;;;;19.69;89.86;101128.50;5015504;28;20593;-71
2022/08/03 05:25:19;;;;;;;6.07;3.03;;;;;;;19.78;89.46;101142.88;5015484;28;20440;-71
2022/08/03 05:27:46;;;;;;;4.37;2.70;;;;;;;19.83;87.64;101140.72;5015081;28;21057;-71
2022/08/03 05:30:13;;;;;;;3.90;2.30;;;;;;;19.91;86.63;101137.00;5015298;28;20539;-71
2022/08/03 05:32:39;;;;;;;3.70;2.27;;;;;;;20.01;86.51;101134.88;5015349;28;20475;-71
2022/08/03 05:35:07;;;;;;;3.80;2.40;;;;;;;20.10;86.07;101135.56;5015339;28;20447;-71
2022/08/03 05:37:33;;;;;;;5.73;2.00;;;;;;;20.21;84.94;101142.13;5015262;28;20448;-71
2022/08/03 05:40:02;;;;;;;4.07;1.77;;;;;;;20.31;83.04;101129.78;5015258;28;20527;-71
2022/08/03 05:42:28;;;;;;;3.07;1.50;;;;;;;20.47;79.97;101143.56;5014631;28;20472;-71
2022/08/03 05:44:55;;;;;;;4.00;1.87;;;;;;;20.60;77.82;101145.91;5015147;28;20877;-71
2022/08/03 05:47:22;;;;;;;5.17;1.87;;;;;;;20.74;78.01;101139.94;5015058;28;20621;-71
2022/08/03 05:49:48;;;;;;;4.27;1.87;;;;;;;20.86;77.32;101137.09;5014740;28;20444;-73
2022/08/03 05:52:15;;;;;;;6.80;2.10;;;;;;;20.99;76.34;101148.81;5015026;28;20554;-72
2022/08/03 05:54:41;;;;;;;4.93;1.97;;;;;;;21.11;75.32;101147.88;5014928;28;20580;-71
2022/08/03 05:57:09;;;;;;;3.83;1.47;;;;;;;21.22;73.96;101154.44;5014950;28;20853;-72
2022/08/03 05:59:38;;;;;;;3.10;1.60;;;;;;;21.34;72.18;101156.31;5014860;28;20535;-72
2022/08/03 06:02:05;;;;;;;3.13;1.47;;;;;;;21.46;70.79;101155.38;5014790;28;20544;-72
2022/08/03 06:04:31;;;;;;;2.90;1.33;;;;;;;21.58;68.67;101160.78;5014800;28;20482;-72
2022/08/03 06:06:58;;;;;;;4.20;1.50;;;;;;;21.75;67.08;101165.84;5014353;28;20523;-72
2022/08/03 06:09:24;;;;;;;3.40;1.60;;;;;;;21.88;65.81;101163.75;5014687;28;20468;-72
2022/08/03 06:11:51;;;;;;;2.33;1.07;;;;;;;22.01;64.87;101162.44;5014224;28;21021;-72
2022/08/03 06:14:19;;;;;;;3.07;1.37;;;;;;;22.14;65.10;101161.13;5014581;28;20480;-72
2022/08/03 06:16:45;;;;;;;3.87;1.87;;;;;;;22.31;64.08;101162.63;5014189;28;20480;-72
2022/08/03 06:19:12;;;;;;;4.27;1.73;;;;;;;22.45;66.11;101158.53;5013230;28;21013;-72
2022/08/03 06:21:39;;;;;;;3.03;1.30;;;;;;;22.54;66.71;101161.84;5014367;28;20503;-71
2022/08/03 06:24:06;;;;;;;5.10;2.20;;;;;;;22.75;61.80;101153.09;5014432;28;20527;-72
2022/08/03 06:26:32;;;;;;;3.03;1.50;;;;;;;22.98;61.30;101164.97;5014262;28;21016;-72
2022/08/03 06:28:59;;;;;;;4.10;1.43;;;;;;;23.14;61.75;101162.03;5014253;28;20571;-72
2022/08/03 06:31:28;;;;;;;2.47;1.47;;;;;;;23.20;61.88;101166.09;5014225;28;20499;-71
2022/08/03 06:33:55;;;;;;;3.33;1.70;;;;;;;23.32;59.60;101165.84;5014253;28;20811;-72
2022/08/03 06:36:21;;;;;;;2.63;1.40;;;;;;;23.54;56.80;101157.84;5014327;28;20466;-71
2022/08/03 06:38:48;;;;;;;3.00;1.37;;;;;;;23.67;58.68;101157.25;5014136;28;20535;-71
2022/08/03 06:41:15;;;;;;;2.20;1.00;;;;;;;23.85;56.66;101160.22;5013837;28;20486;-71
2022/08/03 06:43:41;;;;;;;4.60;1.73;;;;;;;24.01;56.44;101165.56;5013601;28;20490;-71
2022/08/03 06:46:09;;;;;;;3.07;1.50;;;;;;;24.13;58.10;101158.97;5013764;28;20499;-72
2022/08/03 06:48:37;;;;;;;4.10;1.87;;;;;;;24.23;56.73;101155.50;5013946;28;20488;-73
2022/08/03 06:51:04;;;;;;;7.20;1.77;;;;;;;24.39;54.15;101163.59;5014118;28;20464;-74
2022/08/03 06:53:31;;;;;;;2.50;1.30;;;;;;;24.61;53.34;101159.03;5013860;28;20444;-75
2022/08/03 06:55:58;;;;;;;2.60;1.13;;;;;;;24.66;55.48;101158.72;5013799;28;20494;-74
2022/08/03 06:58:24;;;;;;;2.80;1.20;;;;;;;24.78;53.01;101155.63;5013917;28;20526;-74
2022/08/03 07:00:51;;;;;;;5.87;1.50;;;;;;;24.89;53.66;101153.72;5013794;28;20464;-74
2022/08/03 07:03:18;;;;;;;2.50;1.20;;;;;;;24.95;53.23;101159.69;5013746;28;20472;-74
2022/08/03 07:05:46;;;;;;;3.80;1.20;;;;;;;25.08;50.94;101158.25;5013781;28;20475;-73
2022/08/03 07:08:13;;;;;;;2.80;1.37;;;;;;;25.18;53.14;101153.94;5013616;28;20479;-74
2022/08/03 07:10:39;;;;;;;2.80;1.30;;;;;;;25.20;53.72;101151.59;5013633;28;20902;-71
2022/08/03 07:13:07;;;;;;;2.50;1.03;;;;;;;25.26;53.24;101157.56;5013361;28;20950;-71
2022/08/03 07:15:34;;;;;;;4.70;1.70;;;;;;;25.33;52.21;101155.63;5013335;28;21028;-71
2022/08/03 07:18:01;;;;;;;4.70;1.50;;;;;;;25.45;51.82;101159.22;5013593;28;20523;-73
2022/08/03 07:20:28;;;;;;;3.43;1.53;;;;;;;25.55;49.90;101158.50;5013190;28;20942;-71
2022/08/03 07:22:56;;;;;;;2.37;1.10;;;;;;;25.71;50.42;101153.41;5013489;28;20475;-71
2022/08/03 07:25:22;;;;;;;3.10;1.30;;;;;;;25.77;50.28;101154.66;5013466;28;20440;-71
2022/08/03 07:27:49;;;;;;;2.60;1.10;;;;;;;25.89;48.69;101154.28;5013064;28;20490;-71
2022/08/03 07:30:17;;;;;;;2.30;0.90;;;;;;;26.00;48.77;101164.66;5012662;28;21025;-71
2022/08/03 07:32:44;;;;;;;2.70;1.50;;;;;;;26.11;48.83;101159.91;5013330;28;20498;-71
2022/08/03 07:35:11;;;;;;;2.50;1.10;;;;;;;26.14;49.30;101161.91;5013367;28;20444;-71
2022/08/03 07:37:38;;;;;;;2.87;1.40;;;;;;;26.12;48.32;101161.50;5013384;28;20861;-71
2022/08/03 07:40:07;;;;;;;2.50;0.90;;;;;;;26.18;48.23;101162.69;5012995;28;20476;-71
2022/08/03 07:42:34;;;;;;;2.90;1.20;;;;;;;26.31;47.00;101163.91;5012971;28;20954;-71
2022/08/03 07:45:00;;;;;;;2.87;1.20;;;;;;;26.44;46.41;101158.81;5013355;28;20444;-71
2022/08/03 07:47:29;;;;;;;3.10;1.43;;;;;;;26.61;45.68;101168.34;5013262;28;20447;-71
2022/08/03 07:49:56;;;;;;;2.50;1.10;;;;;;;26.76;45.77;101169.91;5013249;28;20809;-72
2022/08/03 07:55:09;;;;;;;2.60;1.30;;;;;;;26.86;44.95;101163.53;5013246;28;20440;-74
2022/08/03 07:57:36;;;;;;;2.40;1.20;;;;;;;26.86;44.33;101157.97;5013165;28;20443;-73
2022/08/03 08:00:05;;;;;;;2.80;1.30;;;;;;;27.03;43.08;101163.94;5012924;28;21028;-73
2022/08/03 08:02:31;;;;;;;2.87;1.23;;;;;;;27.23;41.39;101161.56;5013064;28;20468;-73
2022/08/03 08:04:58;;;;;;;3.70;1.00;;;;;;;27.31;41.44;101158.31;5013194;28;20530;-74
2022/08/03 08:07:25;;;;;;;2.40;1.00;;;;;;;27.33;42.58;101163.50;5012762;28;20949;-75
2022/08/03 08:09:51;;;;;;;7.63;1.37;;;;;;;27.39;43.39;101162.69;5013028;28;20491;-75
2022/08/03 08:12:19;;;;;;;2.87;1.30;;;;;;;27.46;40.76;101158.31;5013032;28;20551;-74
2022/08/03 08:14:46;;;;;;;2.10;0.80;;;;;;;27.58;42.43;101160.63;5013173;28;20480;-77
2022/08/03 08:17:13;;;;;;;2.80;1.30;;;;;;;27.70;42.65;101162.97;5013128;28;20878;-75
2022/08/03 08:19:40;;;;;;;3.00;1.40;;;;;;;27.84;40.29;101162.13;5012902;28;20511;-76
2022/08/03 08:22:06;;;;;;;2.70;1.37;;;;;;;27.96;41.03;101167.25;5012802;28;20543;-75
2022/08/03 08:24:33;;;;;;;4.00;1.67;;;;;;;27.95;43.04;101167.66;5012948;28;20444;-78
2022/08/03 08:27:00;;;;;;;2.27;0.87;;;;;;;27.98;41.15;101161.25;5013186;28;20448;-74
2022/08/03 08:29:28;;;;;;;2.30;1.03;;;;;;;28.10;40.38;101164.38;5014281;28;20488;-73
2022/08/03 08:31:56;;;;;;;2.60;1.20;;;;;;;28.15;41.35;101160.34;5017086;28;20460;-74
2022/08/03 08:34:23;;;;;;;3.20;1.47;;;;;;;28.16;40.91;101161.97;5015100;28;20787;-75
2022/08/03 08:36:50;;;;;;;6.17;1.27;;;;;;;28.14;42.42;101158.78;5012889;28;20475;-75
2022/08/03 08:39:17;;;;;;;4.00;1.30;;;;;;;28.15;40.17;101157.56;5012797;28;20446;-75
2022/08/03 08:41:43;;;;;;;2.60;1.43;;;;;;;28.34;39.46;101156.28;5012378;28;20476;-75
2022/08/03 08:44:10;;;;;;;2.87;1.30;;;;;;;28.49;39.05;101168.13;5015467;28;20449;-75
2022/08/03 08:46:38;;;;;;;2.03;0.90;;;;;;;28.58;38.33;101160.09;5016388;28;20490;-75
2022/08/03 08:49:08;;;;;;;7.03;1.30;;;;;;;28.58;40.73;101157.28;5016098;28;20526;-75
2022/08/03 08:51:36;;;;;;;2.67;1.07;;;;;;;28.51;40.45;101154.56;5016105;28;20546;-75
2022/08/03 08:54:06;;;;;;;2.57;1.23;;;;;;;28.64;39.67;101155.63;5015787;28;20546;-75
2022/08/03 08:56:33;;;;;;;5.50;1.63;;;;;;;28.55;42.08;101161.69;5015619;28;20491;-75
2022/08/03 08:59:01;;;;;;;2.30;1.00;;;;;;;28.60;39.03;101157.69;5016047;28;20571;-75
2022/08/03 09:01:28;;;;;;;2.30;1.10;;;;;;;28.59;39.90;101159.66;5015915;28;20460;-75
2022/08/03 09:03:56;;;;;;;3.70;1.40;;;;;;;28.63;40.04;101154.06;5015596;28;20440;-75
2022/08/03 09:06:23;;;;;;;2.67;1.23;;;;;;;28.66;39.77;101144.88;5015913;28;20484;-75
2022/08/03 09:08:50;;;;;;;2.33;0.97;;;;;;;28.64;40.53;101141.69;5015756;28;20527;-75
2022/08/03 09:11:21;;;;;;;2.73;1.40;;;;;;;28.73;40.21;101147.63;5015437;28;20495;-75
2022/08/03 09:13:48;;;;;;;2.40;1.10;;;;;;;28.76;40.29;101155.13;5015436;28;20532;-76
2022/08/03 09:16:17;;;;;;;2.60;1.10;;;;;;;28.81;39.77;101142.75;5015715;28;20535;-73
2022/08/03 09:18:46;;;;;;;2.53;1.20;;;;;;;28.90;41.72;101148.63;5015655;28;20436;-75
2022/08/03 09:21:16;;;;;;;4.00;1.47;;;;;;;28.92;38.95;101151.81;5015231;28;21068;-73
2022/08/03 09:23:48;;;;;;;2.33;1.07;;;;;;;29.09;39.36;101144.50;5015542;28;20511;-74
2022/08/03 09:26:21;;;;;;;2.30;1.10;;;;;;;29.22;39.79;101148.34;5015258;28;20450;-75
2022/08/03 09:28:55;;;;;;;2.70;1.10;;;;;;;29.29;39.44;101139.09;5015424;28;20468;-75
2022/08/03 09:31:30;;;;;;;3.07;1.43;;;;;;;29.35;39.40;101141.03;5015070;28;20471;-75
2022/08/03 09:33:59;;;;;;;2.97;1.20;;;;;;;29.37;38.30;101144.19;5015262;28;20518;-74
2022/08/03 09:36:41;;;;;;;2.50;1.10;;;;;;;29.45;38.43;101136.50;5015256;28;20491;-75
2022/08/03 09:39:10;;;;;;;2.50;1.10;;;;;;;29.55;38.92;101144.00;5014948;28;20522;-75
2022/08/03 09:41:39;;;;;;;2.10;0.90;;;;;;;29.57;39.87;101137.97;5014765;28;20522;-75
2022/08/03 09:44:06;;;;;;;3.20;1.60;;;;;;;29.57;39.71;101143.56;5015132;28;20444;-75
2022/08/03 09:46:47;;;;;;;3.20;1.60;;;;;;;29.67;39.51;101150.25;5014894;28;20476;-74
2022/08/03 09:49:13;;;;;;;2.90;1.27;;;;;;;29.73;38.98;101143.75;5015022;28;20554;-74
2022/08/03 09:51:42;;;;;;;2.70;1.20;;;;;;;29.72;39.51;101139.38;5014649;28;21045;-75
2022/08/03 09:54:08;;;;;;;2.23;1.00;;;;;;;29.66;41.42;101132.66;5014407;28;20942;-74
2022/08/03 09:56:40;;;;;;;3.00;1.10;;;;;;;29.70;39.99;101138.22;5014895;28;20609;-75
2022/08/03 09:59:07;;;;;;;2.30;1.20;;;;;;;29.71;41.26;101135.03;5014545;28;20441;-74
2022/08/03 10:01:34;;;;;;;2.10;0.90;;;;;;;29.79;38.72;101133.69;5014422;28;21069;-74
2022/08/03 10:04:01;;;;;;;4.77;1.60;;;;;;;29.91;39.87;101138.72;5014802;28;20479;-74
2022/08/03 10:06:27;;;;;;;2.70;1.13;;;;;;;29.96;40.40;101131.06;5014717;28;20448;-74
2022/08/03 10:09:07;;;;;;;2.97;1.37;;;;;;;30.01;39.00;101130.59;5014308;28;21087;-74
2022/08/03 10:11:34;;;;;;;2.40;1.00;;;;;;;30.05;39.69;101128.53;5014719;28;20479;-74
2022/08/03 10:14:03;;;;;;;2.30;1.10;;;;;;;30.11;37.71;101132.47;5014603;28;20440;-74
2022/08/03 10:16:34;;;;;;;3.70;1.30;;;;;;;30.16;38.75;101126.41;5014302;28;20524;-74
2022/08/03 10:19:00;;;;;;;2.50;1.20;;;;;;;30.28;37.89;101117.44;5014615;28;20424;-74
2022/08/03 10:21:32;;;;;;;2.70;1.00;;;;;;;30.33;37.67;101114.16;5014224;28;21004;-74
2022/08/03 10:24:02;;;;;;;2.83;1.50;;;;;;;30.44;39.58;101099.22;5014134;28;20516;-74
2022/08/03 10:26:32;;;;;;;2.93;1.10;;;;;;;30.50;39.66;101117.06;5014516;28;20448;-74
2022/08/03 10:29:01;;;;;;;2.87;1.50;;;;;;;30.68;37.71;101120.38;5014528;28;20500;-74
2022/08/03 10:31:34;;;;;;;3.43;1.47;;;;;;;30.78;37.59;101118.63;5014628;28;20471;-75
2022/08/03 10:34:04;;;;;;;2.50;1.10;;;;;;;30.86;39.17;101111.69;5014418;28;20515;-75
2022/08/03 10:36:33;;;;;;;2.90;1.30;;;;;;;30.82;39.65;101117.34;5014550;28;20534;-75
2022/08/03 10:39:01;;;;;;;2.80;1.20;;;;;;;30.84;40.36;101108.50;5014132;28;20454;-75
2022/08/03 10:41:36;;;;;;;2.43;1.10;;;;;;;30.86;39.47;101109.66;5013788;28;20563;-75
2022/08/03 10:44:06;;;;;;;4.70;1.00;;;;;;;30.90;39.64;101107.59;5013862;28;20804;-74
2022/08/03 10:46:35;;;;;;;2.67;1.20;;;;;;;30.95;38.20;101102.72;5013965;28;20863;-74
2022/08/03 10:49:03;;;;;;;3.27;1.30;;;;;;;31.03;37.65;101104.94;5014028;28;20574;-74
2022/08/03 10:51:30;;;;;;;2.77;1.17;;;;;;;31.20;38.06;101099.41;5014170;28;20464;-74
2022/08/03 10:53:58;;;;;;;2.63;1.20;;;;;;;31.36;36.95;101102.31;5014031;28;20440;-74
2022/08/03 11:00:02;;;;;;;5.30;1.30;;;;;;;31.68;36.69;101093.22;5013826;28;20407;-73
2022/08/03 11:03:05;;;;;;;2.40;1.13;;;;;;;31.82;35.68;101086.50;5009803;28;20486;-73
2022/08/03 11:05:34;;;;;;;3.00;1.23;;;;;;;31.96;35.53;101085.41;5012131;28;20506;-74
2022/08/03 11:08:29;;;;;;;2.17;0.77;;;;;;;32.05;36.04;101093.97;5013500;28;20949;-74
2022/08/03 11:11:01;;;;;;;2.47;1.07;;;;;;;32.02;35.53;101090.06;5013574;28;20499;-73
2022/08/03 11:13:32;;;;;;;2.50;1.20;;;;;;;32.17;34.49;101089.72;5013675;28;20479;-73
2022/08/03 11:16:03;;;;;;;2.30;0.90;;;;;;;32.01;34.85;101082.06;5013381;28;20531;-74
2022/08/03 11:18:30;;;;;;;2.70;0.83;;;;;;;31.96;34.45;101080.56;5013781;28;20815;-73
2022/08/03 11:20:58;;;;;;;2.73;1.00;;;;;;;32.19;35.38;101081.66;5013514;28;20471;-73
2022/08/03 11:23:43;;;;;;;2.83;1.17;;;;;;;32.59;35.02;101087.88;5013558;28;20535;-72
2022/08/03 11:26:15;;;;;;;2.27;1.00;;;;;;;32.85;32.98;101085.94;5013493;28;20444;-73
2022/08/03 11:28:44;;;;;;;2.50;1.00;;;;;;;33.08;32.60;101084.94;5013540;28;20476;-74
2022/08/03 11:31:43;;;;;;;2.73;0.80;;;;;;;33.53;33.97;101084.84;5013614;28;20464;-72
2022/08/03 11:34:12;;;;;;;2.50;1.13;;;;;;;33.97;32.56;101082.28;5013270;28;20960;-72
2022/08/03 11:37:11;;;;;;;4.97;1.17;;;;;;;34.28;31.44;101082.47;5013451;28;20523;-74
2022/08/03 11:39:39;;;;;;;2.57;0.93;;;;;;;34.46;31.82;101093.13;5012960;28;20973;-74
2022/08/03 11:42:44;;;;;;;2.63;1.07;;;;;;;34.66;31.30;101084.41;5012924;28;20927;-74
2022/08/03 11:45:12;;;;;;;2.20;1.00;;;;;;;35.00;31.08;101083.59;5013404;28;20432;-75